| time (UTC) | temp C | wind direction | speed KPH | gust KPH | rain 1hr cm | rain 24hr cm | rain mn cm | humidity % | barometer mb |
| 20260906234307 | 34 | 0 | 4.8 | 12.9 | 0.00 | 0.00 | 0.00 | 19 | 1016.1 |
| 20260906233806 | 34 | 0 | 1.6 | 16.1 | 0.00 | 0.00 | 0.00 | 19 | 1016.1 |
| 20260906233307 | 34 | 0 | 8.0 | 19.3 | 0.00 | 0.00 | 0.00 | 19 | 1016.1 |
| 20260906232806 | 34 | 0 | 4.8 | 14.5 | 0.00 | 0.00 | 0.00 | 20 | 1016.0 |
| 20260906232307 | 34 | 6 | 8.0 | 14.5 | 0.00 | 0.00 | 0.00 | 19 | 1016.2 |
| 20260906231807 | 34 | 0 | 9.7 | 19.3 | 0.00 | 0.00 | 0.00 | 19 | 1016.1 |
| 20260906231306 | 34 | 0 | 1.6 | 9.7 | 0.00 | 0.00 | 0.00 | 18 | 1016.2 |
| 20260906230807 | 35 | 0 | 1.6 | 8.0 | 0.00 | 0.00 | 0.00 | 18 | 1016.2 |
| 20260906230306 | 35 | 0 | 4.8 | 12.9 | 0.00 | 0.00 | 0.00 | 18 | 1016.3 |
| 20260906225807 | 35 | 0 | 3.2 | 8.0 | 0.00 | 0.00 | 0.00 | 19 | 1016.2 |
| 20260906224807 | 35 | 5 | 4.8 | 14.5 | 0.00 | 0.00 | 0.00 | 18 | 1016.3 |
| 20260906224308 | 35 | 0 | 4.8 | 9.7 | 0.00 | 0.00 | 0.00 | 18 | 1016.2 |
| 20260906223806 | 35 | 0 | 1.6 | 12.9 | 0.00 | 0.00 | 0.00 | 18 | 1016.2 |
| 20260906223307 | 35 | 0 | 6.4 | 16.1 | 0.00 | 0.00 | 0.00 | 18 | 1016.3 |
| 20260906222807 | 35 | 0 | 6.4 | 19.3 | 0.00 | 0.00 | 0.00 | 18 | 1016.4 |
| 20260906222307 | 35 | 0 | 1.6 | 9.7 | 0.00 | 0.00 | 0.00 | 17 | 1016.3 |
| 20260906221806 | 35 | 0 | 4.8 | 19.3 | 0.00 | 0.00 | 0.00 | 17 | 1016.3 |
| 20260906221307 | 35 | 347 | 3.2 | 12.9 | 0.00 | 0.00 | 0.00 | 17 | 1016.5 |
| 20260906220807 | 35 | 334 | 1.6 | 9.7 | 0.00 | 0.00 | 0.00 | 17 | 1016.5 |
| 20260906220307 | 35 | 0 | 1.6 | 4.8 | 0.00 | 0.00 | 0.00 | 17 | 1016.7 |
| 20260906215806 | 35 | 0 | 1.6 | 8.0 | 0.00 | 0.00 | 0.00 | 17 | 1016.8 |
| 20260906215308 | 35 | 0 | 4.8 | 9.7 | 0.00 | 0.00 | 0.00 | 17 | 1016.9 |
| 20260906214808 | 35 | 0 | 4.8 | 9.7 | 0.00 | 0.00 | 0.00 | 17 | 1016.9 |
| 20260906214307 | 35 | 0 | 4.8 | 8.0 | 0.00 | 0.00 | 0.00 | 17 | 1017.0 |
| 20260906213808 | 35 | 0 | 3.2 | 9.7 | 0.00 | 0.00 | 0.00 | 17 | 1017.1 |
| 20260906213307 | 35 | 0 | 3.2 | 16.1 | 0.00 | 0.00 | 0.00 | 17 | 1017.4 |
| 20260906212311 | 36 | 0 | 1.6 | 8.0 | 0.00 | 0.00 | 0.00 | 16 | 1017.5 |
| 20260906211806 | 36 | 0 | 3.2 | 12.9 | 0.00 | 0.00 | 0.00 | 16 | 1017.7 |
| 20260906211309 | 36 | 0 | 1.6 | 8.0 | 0.00 | 0.00 | 0.00 | 16 | 1017.8 |
| 20260906210808 | 36 | 0 | 0.0 | 8.0 | 0.00 | 0.00 | 0.00 | 15 | 1017.8 |
| 20260906210307 | 36 | 7 | 4.8 | 9.7 | 0.00 | 0.00 | 0.00 | 15 | 1018.0 |
| 20260906205808 | 36 | 0 | 4.8 | 12.9 | 0.00 | 0.00 | 0.00 | 15 | 1017.7 |
| 20260906205307 | 36 | 3 | 4.8 | 12.9 | 0.00 | 0.00 | 0.00 | 15 | 1017.9 |
| 20260906204807 | 36 | 2 | 1.6 | 3.2 | 0.00 | 0.00 | 0.00 | 15 | 1017.9 |
| 20260906204308 | 36 | 0 | 0.0 | 9.7 | 0.00 | 0.00 | 0.00 | 15 | 1018.0 |
| 20260906202806 | 36 | 0 | 1.6 | 3.2 | 0.00 | 0.00 | 0.00 | 15 | 1018.3 |
| 20260906202307 | 35 | 20 | 0.0 | 4.8 | 0.00 | 0.00 | 0.00 | 16 | 1018.4 |
| 20260906201306 | 35 | 0 | 0.0 | 3.2 | 0.00 | 0.00 | 0.00 | 16 | 1018.5 |
| 20260906200807 | 35 | 0 | 4.8 | 8.0 | 0.00 | 0.00 | 0.00 | 15 | 1018.6 |
| 20260906200308 | 35 | 0 | 0.0 | 1.6 | 0.00 | 0.00 | 0.00 | 16 | 1018.5 |
| 20260906195807 | 35 | 0 | 0.0 | 8.0 | 0.00 | 0.00 | 0.00 | 16 | 1018.6 |
| 20260906195307 | 35 | 0 | 3.2 | 9.7 | 0.00 | 0.00 | 0.00 | 16 | 1018.7 |
| 20260906194808 | 35 | 0 | 1.6 | 4.8 | 0.00 | 0.00 | 0.00 | 16 | 1018.7 |
| 20260906194308 | 35 | 5 | 3.2 | 9.7 | 0.00 | 0.00 | 0.00 | 16 | 1018.7 |
| 20260906193806 | 35 | 0 | 4.8 | 16.1 | 0.00 | 0.00 | 0.00 | 16 | 1018.7 |
| 20260906193307 | 36 | 5 | 4.8 | 12.9 | 0.00 | 0.00 | 0.00 | 15 | 1018.8 |
| 20260906192808 | 36 | 3 | 3.2 | 9.7 | 0.00 | 0.00 | 0.00 | 15 | 1018.9 |
| 20260906191806 | 35 | 12 | 4.8 | 16.1 | 0.00 | 0.00 | 0.00 | 15 | 1019.0 |
| 20260906191308 | 35 | 252 | 3.2 | 12.9 | 0.00 | 0.00 | 0.00 | 16 | 1019.1 |
| 20260906190807 | 35 | 12 | 0.0 | 3.2 | 0.00 | 0.00 | 0.00 | 17 | 1019.2 |
| 20260906190308 | 35 | 0 | 0.0 | 4.8 | 0.00 | 0.00 | 0.00 | 17 | 1019.4 |
| 20260906185307 | 35 | 2 | 6.4 | 12.9 | 0.00 | 0.00 | 0.00 | 17 | 1019.3 |
| 20260906184807 | 35 | 5 | 3.2 | 12.9 | 0.00 | 0.00 | 0.00 | 17 | 1019.6 |
| 20260906183807 | 34 | 1 | 1.6 | 8.0 | 0.00 | 0.00 | 0.00 | 17 | 1019.7 |
| 20260906183306 | 34 | 0 | 1.6 | 8.0 | 0.00 | 0.00 | 0.00 | 19 | 1019.9 |
| 20260906182307 | 33 | 0 | 1.6 | 4.8 | 0.00 | 0.00 | 0.00 | 19 | 1020.2 |
| 20260906181807 | 33 | 0 | 3.2 | 8.0 | 0.00 | 0.00 | 0.00 | 18 | 1020.1 |
| 20260906181306 | 33 | 4 | 3.2 | 11.3 | 0.00 | 0.00 | 0.00 | 21 | 1020.2 |
| 20260906180807 | 33 | 0 | 3.2 | 8.0 | 0.00 | 0.00 | 0.00 | 21 | 1020.4 |
| 20260906180306 | 32 | 3 | 4.8 | 9.7 | 0.00 | 0.00 | 0.00 | 22 | 1020.4 |
| 20260906175807 | 32 | 0 | 1.6 | 9.7 | 0.00 | 0.00 | 0.00 | 23 | 1020.6 |
| 20260906175307 | 31 | 6 | 3.2 | 9.7 | 0.00 | 0.00 | 0.00 | 25 | 1020.7 |
| 20260906174807 | 31 | 0 | 3.2 | 8.0 | 0.00 | 0.00 | 0.00 | 24 | 1020.6 |
| 20260906174307 | 31 | 3 | 1.6 | 12.9 | 0.00 | 0.00 | 0.00 | 24 | 1020.6 |
| 20260906173806 | 31 | 9 | 4.8 | 9.7 | 0.00 | 0.00 | 0.00 | 25 | 1020.8 |
| 20260906173307 | 31 | 29 | 3.2 | 12.9 | 0.00 | 0.00 | 0.00 | 26 | 1020.8 |
| 20260906172806 | 30 | 4 | 1.6 | 4.8 | 0.00 | 0.00 | 0.00 | 27 | 1020.9 |
| 20260906172306 | 30 | 6 | 4.8 | 9.7 | 0.00 | 0.00 | 0.00 | 27 | 1020.9 |
| 20260906171806 | 30 | 0 | 1.6 | 8.0 | 0.00 | 0.00 | 0.00 | 27 | 1021.0 |
| 20260906171308 | 30 | 3 | 4.8 | 9.7 | 0.00 | 0.00 | 0.00 | 27 | 1021.0 |
| 20260906170807 | 29 | 0 | 4.8 | 9.7 | 0.00 | 0.00 | 0.00 | 28 | 1021.2 |
| 20260906165806 | 29 | 20 | 0.0 | 9.7 | 0.00 | 0.00 | 0.00 | 28 | 1021.3 |
| 20260906165310 | 28 | 4 | 4.8 | 14.5 | 0.00 | 0.00 | 0.00 | 28 | 1021.3 |
| 20260906164807 | 28 | 0 | 6.4 | 12.9 | 0.00 | 0.00 | 0.00 | 28 | 1021.2 |
| 20260906163807 | 28 | 358 | 3.2 | 9.7 | 0.00 | 0.00 | 0.00 | 29 | 1021.4 |
| 20260906163305 | 27 | 5 | 3.2 | 9.7 | 0.00 | 0.00 | 0.00 | 29 | 1021.3 |
| 20260906161805 | 27 | 1 | 3.2 | 8.0 | 0.00 | 0.00 | 0.00 | 30 | 1021.3 |
| 20260906161305 | 27 | 359 | 1.6 | 12.9 | 0.00 | 0.00 | 0.00 | 30 | 1021.2 |
| 20260906160805 | 27 | 0 | 4.8 | 12.9 | 0.00 | 0.00 | 0.00 | 31 | 1021.3 |
| 20260906160305 | 26 | 5 | 3.2 | 8.0 | 0.00 | 0.00 | 0.00 | 31 | 1021.3 |
| 20260906155307 | 26 | 13 | 3.2 | 9.7 | 0.00 | 0.00 | 0.00 | 31 | 1021.3 |
| 20260906154805 | 26 | 2 | 6.4 | 12.9 | 0.00 | 0.00 | 0.00 | 32 | 1021.4 |
| 20260906154305 | 26 | 0 | 4.8 | 9.7 | 0.00 | 0.00 | 0.00 | 32 | 1021.4 |
| 20260906153805 | 26 | 9 | 3.2 | 8.0 | 0.00 | 0.00 | 0.00 | 32 | 1021.4 |
| 20260906153305 | 25 | 358 | 0.0 | 12.9 | 0.00 | 0.00 | 0.00 | 32 | 1021.4 |
| 20260906152805 | 25 | 0 | 1.6 | 16.1 | 0.00 | 0.00 | 0.00 | 32 | 1021.4 |
| 20260906152307 | 25 | 0 | 4.8 | 14.5 | 0.00 | 0.00 | 0.00 | 32 | 1021.4 |
| 20260906151805 | 25 | 0 | 3.2 | 9.7 | 0.00 | 0.00 | 0.00 | 32 | 1021.4 |
| 20260906151304 | 25 | 1 | 3.2 | 14.5 | 0.00 | 0.00 | 0.00 | 33 | 1021.6 |
| 20260906150805 | 24 | 0 | 0.0 | 0.0 | 0.00 | 0.00 | 0.00 | 33 | 1021.7 |
| 20260906150305 | 24 | 0 | 0.0 | 0.0 | 0.00 | 0.00 | 0.00 | 33 | 1021.7 |
| 20260906145306 | 24 | 7 | 0.0 | 1.6 | 0.00 | 0.00 | 0.00 | 32 | 1021.7 |
| 20260906144805 | 24 | 0 | 0.0 | 0.0 | 0.00 | 0.00 | 0.00 | 32 | 1021.6 |
| 20260906143805 | 23 | 0 | 0.0 | 3.2 | 0.00 | 0.00 | 0.00 | 33 | 1021.3 |
| 20260906143305 | 23 | 5 | 0.0 | 4.8 | 0.00 | 0.00 | 0.00 | 34 | 1021.3 |
| 20260906142805 | 23 | 3 | 0.0 | 0.0 | 0.00 | 0.00 | 0.00 | 34 | 1021.3 |
| 20260906141805 | 23 | 0 | 0.0 | 1.6 | 0.00 | 0.00 | 0.00 | 34 | 1021.0 |
| 20260906141305 | 22 | 0 | 0.0 | 0.0 | 0.00 | 0.00 | 0.00 | 36 | 1021.3 |
| 20260906140805 | 22 | 0 | 0.0 | 0.0 | 0.00 | 0.00 | 0.00 | 36 | 1021.3 |
| 20260906140305 | 22 | 0 | 1.6 | 4.8 | 0.00 | 0.00 | 0.00 | 35 | 1021.2 |
| 20260906135805 | 22 | 7 | 3.2 | 8.0 | 0.00 | 0.00 | 0.00 | 35 | 1021.2 |
| 20260906135306 | 22 | 1 | 3.2 | 4.8 | 0.00 | 0.00 | 0.00 | 33 | 1021.1 |
| 20260906134805 | 22 | 0 | 3.2 | 4.8 | 0.00 | 0.00 | 0.00 | 32 | 1021.1 |
| 20260906134305 | 22 | 3 | 3.2 | 9.7 | 0.00 | 0.00 | 0.00 | 31 | 1020.9 |
| 20260906133805 | 22 | 0 | 1.6 | 14.5 | 0.00 | 0.00 | 0.00 | 30 | 1020.7 |
| 20260906133305 | 22 | 0 | 4.8 | 12.9 | 0.00 | 0.00 | 0.00 | 30 | 1020.5 |
| 20260906132806 | 22 | 358 | 1.6 | 4.8 | 0.00 | 0.00 | 0.00 | 31 | 1020.5 |
| 20260906132306 | 22 | 0 | 3.2 | 14.5 | 0.00 | 0.00 | 0.00 | 30 | 1020.3 |
| 20260906131805 | 21 | 0 | 6.4 | 12.9 | 0.00 | 0.00 | 0.00 | 31 | 1020.3 |
| 20260906131305 | 21 | 0 | 6.4 | 12.9 | 0.00 | 0.00 | 0.00 | 31 | 1020.4 |
| 20260906130804 | 21 | 0 | 4.8 | 9.7 | 0.00 | 0.00 | 0.00 | 31 | 1020.5 |
| 20260906130305 | 21 | 0 | 4.8 | 12.9 | 0.00 | 0.00 | 0.00 | 31 | 1020.4 |
| 20260906125804 | 21 | 0 | 6.4 | 9.7 | 0.00 | 0.00 | 0.00 | 32 | 1020.3 |
| 20260906125306 | 21 | 0 | 4.8 | 9.7 | 0.00 | 0.00 | 0.00 | 32 | 1020.4 |
| 20260906124805 | 21 | 0 | 4.8 | 9.7 | 0.00 | 0.00 | 0.00 | 32 | 1020.2 |
| 20260906124306 | 21 | 0 | 3.2 | 8.0 | 0.00 | 0.00 | 0.00 | 33 | 1020.3 |
| 20260906123805 | 21 | 0 | 0.0 | 4.8 | 0.00 | 0.00 | 0.00 | 35 | 1020.4 |
| 20260906123305 | 21 | 0 | 0.0 | 0.0 | 0.00 | 0.00 | 0.00 | 36 | 1020.4 |
| 20260906122805 | 21 | 0 | 0.0 | 0.0 | 0.00 | 0.00 | 0.00 | 37 | 1020.3 |
| 20260906121805 | 21 | 350 | 0.0 | 0.0 | 0.00 | 0.00 | 0.00 | 36 | 1020.3 |
| 20260906121304 | 21 | 350 | 0.0 | 0.0 | 0.00 | 0.00 | 0.00 | 36 | 1020.2 |
| 20260906120806 | 21 | 350 | 0.0 | 0.0 | 0.00 | 0.00 | 0.00 | 36 | 1020.1 |
| 20260906115804 | 22 | 348 | 0.0 | 0.0 | 0.00 | 0.00 | 0.00 | 36 | 1020.1 |
| 20260906115306 | 22 | 348 | 0.0 | 0.0 | 0.00 | 0.00 | 0.00 | 36 | 1020.2 |
| 20260906114304 | 22 | 350 | 0.0 | 0.0 | 0.00 | 0.00 | 0.00 | 36 | 1020.2 |
| 20260906113805 | 22 | 350 | 0.0 | 0.0 | 0.00 | 0.00 | 0.00 | 36 | 1020.2 |
| 20260906113305 | 22 | 351 | 0.0 | 0.0 | 0.00 | 0.00 | 0.00 | 36 | 1020.4 |
| 20260906112805 | 22 | 351 | 0.0 | 0.0 | 0.00 | 0.00 | 0.00 | 36 | 1020.4 |
| 20260906112306 | 23 | 351 | 0.0 | 0.0 | 0.00 | 0.00 | 0.00 | 35 | 1020.3 |
| 20260906111805 | 23 | 351 | 0.0 | 0.0 | 0.00 | 0.00 | 0.00 | 36 | 1020.2 |
| 20260906111305 | 23 | 351 | 0.0 | 0.0 | 0.00 | 0.00 | 0.00 | 36 | 1020.3 |
| 20260906105805 | 23 | 351 | 0.0 | 0.0 | 0.00 | 0.00 | 0.00 | 35 | 1020.4 |
| 20260906105306 | 23 | 351 | 0.0 | 0.0 | 0.00 | 0.00 | 0.00 | 34 | 1020.5 |
| 20260906104804 | 23 | 351 | 0.0 | 0.0 | 0.00 | 0.00 | 0.00 | 33 | 1020.3 |
| 20260906104305 | 23 | 351 | 0.0 | 0.0 | 0.00 | 0.00 | 0.00 | 33 | 1020.4 |
| 20260906103804 | 23 | 351 | 1.6 | 4.8 | 0.00 | 0.00 | 0.00 | 31 | 1020.2 |
| 20260906103305 | 23 | 3 | 0.0 | 3.2 | 0.00 | 0.00 | 0.00 | 32 | 1020.2 |
| 20260906102805 | 23 | 2 | 1.6 | 4.8 | 0.00 | 0.00 | 0.00 | 32 | 1020.1 |
| 20260906102306 | 23 | 8 | 0.0 | 0.0 | 0.00 | 0.00 | 0.00 | 32 | 1020.1 |
| 20260906101805 | 23 | 43 | 0.0 | 0.0 | 0.00 | 0.00 | 0.00 | 32 | 1020.1 |
| 20260906101305 | 23 | 42 | 0.0 | 0.0 | 0.00 | 0.00 | 0.00 | 31 | 1020.2 |
| 20260906100305 | 24 | 0 | 0.0 | 4.8 | 0.00 | 0.00 | 0.00 | 31 | 1020.2 |
| 20260906095805 | 24 | 0 | 1.6 | 8.0 | 0.00 | 0.00 | 0.00 | 31 | 1019.8 |
| 20260906094305 | 24 | 0 | 3.2 | 9.7 | 0.00 | 0.00 | 0.00 | 31 | 1019.7 |
| 20260906093805 | 24 | 0 | 1.6 | 4.8 | 0.00 | 0.00 | 0.00 | 31 | 1019.7 |
| 20260906093305 | 24 | 0 | 3.2 | 9.7 | 0.00 | 0.00 | 0.00 | 31 | 1019.6 |
| 20260906092306 | 24 | 0 | 3.2 | 12.9 | 0.00 | 0.00 | 0.00 | 31 | 1019.7 |
| 20260906091305 | 24 | 0 | 3.2 | 9.7 | 0.00 | 0.00 | 0.00 | 31 | 1019.6 |
| 20260906090804 | 24 | 0 | 4.8 | 14.5 | 0.00 | 0.00 | 0.00 | 30 | 1019.4 |
| 20260906090306 | 24 | 0 | 4.8 | 9.7 | 0.00 | 0.00 | 0.00 | 31 | 1019.5 |
| 20260906085805 | 24 | 0 | 3.2 | 9.7 | 0.00 | 0.00 | 0.00 | 31 | 1019.4 |
| 20260906085307 | 24 | 0 | 3.2 | 12.9 | 0.00 | 0.00 | 0.00 | 31 | 1019.4 |
| 20260906084805 | 24 | 0 | 3.2 | 12.9 | 0.00 | 0.00 | 0.00 | 31 | 1019.4 |
| 20260906084304 | 24 | 0 | 3.2 | 8.0 | 0.00 | 0.00 | 0.00 | 31 | 1019.4 |
| 20260906083805 | 24 | 0 | 3.2 | 8.0 | 0.00 | 0.00 | 0.00 | 31 | 1019.5 |
| 20260906083305 | 24 | 0 | 1.6 | 4.8 | 0.00 | 0.00 | 0.00 | 31 | 1019.5 |
| 20260906082805 | 24 | 0 | 1.6 | 4.8 | 0.00 | 0.00 | 0.00 | 32 | 1019.7 |
| 20260906082306 | 24 | 0 | 1.6 | 4.8 | 0.00 | 0.00 | 0.00 | 32 | 1019.7 |
| 20260906081805 | 24 | 0 | 1.6 | 4.8 | 0.00 | 0.00 | 0.00 | 32 | 1019.7 |
| 20260906081305 | 24 | 0 | 1.6 | 4.8 | 0.00 | 0.00 | 0.00 | 32 | 1019.8 |
| 20260906080805 | 23 | 0 | 3.2 | 4.8 | 0.00 | 0.00 | 0.00 | 32 | 1019.7 |
| 20260906080304 | 23 | 0 | 1.6 | 4.8 | 0.00 | 0.00 | 0.00 | 32 | 1019.8 |
| 20260906075805 | 23 | 0 | 1.6 | 9.7 | 0.00 | 0.00 | 0.00 | 32 | 1019.8 |
| 20260906075306 | 23 | 0 | 3.2 | 8.0 | 0.00 | 0.00 | 0.00 | 32 | 1019.8 |
| 20260906074805 | 23 | 0 | 3.2 | 8.0 | 0.00 | 0.00 | 0.00 | 32 | 1019.9 |
| 20260906074305 | 23 | 0 | 1.6 | 4.8 | 0.00 | 0.00 | 0.00 | 32 | 1019.9 |
| 20260906073805 | 23 | 0 | 1.6 | 4.8 | 0.00 | 0.00 | 0.00 | 32 | 1019.9 |
| 20260906073305 | 23 | 0 | 1.6 | 8.0 | 0.00 | 0.00 | 0.00 | 32 | 1019.9 |
| 20260906072805 | 23 | 0 | 4.8 | 9.7 | 0.00 | 0.00 | 0.00 | 32 | 1020.0 |
| 20260906072306 | 24 | 0 | 4.8 | 8.0 | 0.00 | 0.00 | 0.00 | 32 | 1020.1 |
| 20260906071806 | 24 | 0 | 0.0 | 4.8 | 0.00 | 0.00 | 0.00 | 32 | 1020.1 |
| 20260906071305 | 24 | 0 | 0.0 | 0.0 | 0.00 | 0.00 | 0.00 | 32 | 1020.1 |
| 20260906070805 | 25 | 0 | 0.0 | 0.0 | 0.00 | 0.00 | 0.00 | 31 | 1020.1 |
| 20260906070305 | 25 | 0 | 0.0 | 0.0 | 0.00 | 0.00 | 0.00 | 31 | 1020.1 |
| 20260906065804 | 25 | 0 | 0.0 | 0.0 | 0.00 | 0.00 | 0.00 | 31 | 1020.1 |
| 20260906065305 | 25 | 0 | 0.0 | 0.0 | 0.00 | 0.00 | 0.00 | 31 | 1020.1 |
| 20260906064805 | 25 | 0 | 0.0 | 0.0 | 0.00 | 0.00 | 0.00 | 31 | 1020.1 |
| 20260906064305 | 25 | 0 | 0.0 | 0.0 | 0.00 | 0.00 | 0.00 | 31 | 1020.2 |
| 20260906063305 | 25 | 197 | 0.0 | 0.0 | 0.00 | 0.00 | 0.00 | 31 | 1020.2 |
| 20260906062805 | 25 | 197 | 0.0 | 0.0 | 0.00 | 0.00 | 0.00 | 31 | 1020.2 |
| 20260906062306 | 26 | 197 | 0.0 | 0.0 | 0.00 | 0.00 | 0.00 | 30 | 1020.1 |
| 20260906061305 | 26 | 0 | 0.0 | 0.0 | 0.00 | 0.00 | 0.00 | 30 | 1020.1 |
| 20260906060810 | 26 | 0 | 0.0 | 0.0 | 0.00 | 0.00 | 0.00 | 30 | 1020.1 |
| 20260906060305 | 26 | 0 | 0.0 | 0.0 | 0.00 | 0.00 | 0.00 | 30 | 1020.0 |
| 20260906055805 | 26 | 0 | 1.6 | 12.9 | 0.00 | 0.00 | 0.00 | 29 | 1019.8 |
| 20260906055306 | 26 | 358 | 0.0 | 8.0 | 0.00 | 0.00 | 0.00 | 30 | 1020.0 |
| 20260906054805 | 26 | 0 | 0.0 | 0.0 | 0.00 | 0.00 | 0.00 | 30 | 1019.9 |
| 20260906054305 | 26 | 0 | 0.0 | 0.0 | 0.00 | 0.00 | 0.00 | 29 | 1019.7 |
| 20260906053805 | 26 | 0 | 0.0 | 0.0 | 0.00 | 0.00 | 0.00 | 29 | 1019.7 |
| 20260906053305 | 27 | 0 | 0.0 | 0.0 | 0.00 | 0.00 | 0.00 | 29 | 1019.8 |
| 20260906052306 | 27 | 0 | 0.0 | 0.0 | 0.00 | 0.00 | 0.00 | 28 | 1019.8 |
| 20260906051805 | 27 | 0 | 0.0 | 0.0 | 0.00 | 0.00 | 0.00 | 28 | 1019.7 |
| 20260906051304 | 27 | 0 | 0.0 | 4.8 | 0.00 | 0.00 | 0.00 | 27 | 1019.6 |
| 20260906050806 | 27 | 0 | 3.2 | 14.5 | 0.00 | 0.00 | 0.00 | 27 | 1019.4 |
| 20260906050304 | 27 | 0 | 8.0 | 19.3 | 0.00 | 0.00 | 0.00 | 27 | 1019.4 |
| 20260906045804 | 27 | 0 | 9.7 | 20.9 | 0.00 | 0.00 | 0.00 | 27 | 1019.3 |
| 20260906044805 | 27 | 0 | 9.7 | 22.5 | 0.00 | 0.00 | 0.00 | 28 | 1019.3 |
| 20260906044304 | 27 | 0 | 4.8 | 19.3 | 0.00 | 0.00 | 0.00 | 28 | 1019.3 |
| 20260906043804 | 27 | 0 | 6.4 | 14.5 | 0.00 | 0.00 | 0.00 | 28 | 1019.4 |
| 20260906043304 | 27 | 0 | 6.4 | 12.9 | 0.00 | 0.00 | 0.00 | 28 | 1019.4 |
| 20260906042805 | 27 | 0 | 3.2 | 12.9 | 0.00 | 0.00 | 0.00 | 28 | 1019.5 |
| 20260906041804 | 27 | 0 | 3.2 | 9.7 | 0.00 | 0.00 | 0.00 | 28 | 1019.5 |
| 20260906041304 | 27 | 0 | 4.8 | 12.9 | 0.00 | 0.00 | 0.00 | 28 | 1019.4 |
| 20260906040805 | 27 | 0 | 3.2 | 12.9 | 0.00 | 0.00 | 0.00 | 27 | 1019.6 |
| 20260906040305 | 27 | 0 | 4.8 | 14.5 | 0.00 | 0.00 | 0.00 | 27 | 1019.6 |
| 20260906035805 | 27 | 0 | 3.2 | 12.9 | 0.00 | 0.00 | 0.00 | 27 | 1019.4 |
| 20260906035306 | 27 | 0 | 9.7 | 20.9 | 0.00 | 0.00 | 0.00 | 27 | 1019.3 |
| 20260906034804 | 27 | 0 | 4.8 | 19.3 | 0.00 | 0.00 | 0.00 | 27 | 1019.3 |
| 20260906034304 | 27 | 0 | 4.8 | 14.5 | 0.00 | 0.00 | 0.00 | 27 | 1019.3 |
| 20260906033805 | 27 | 0 | 4.8 | 14.5 | 0.00 | 0.00 | 0.00 | 27 | 1019.3 |
| 20260906033306 | 27 | 0 | 3.2 | 12.9 | 0.00 | 0.00 | 0.00 | 27 | 1019.3 |
| 20260906032804 | 28 | 0 | 4.8 | 14.5 | 0.00 | 0.00 | 0.00 | 27 | 1019.2 |
| 20260906032306 | 28 | 0 | 4.8 | 19.3 | 0.00 | 0.00 | 0.00 | 27 | 1019.1 |
| 20260906031805 | 28 | 0 | 4.8 | 14.5 | 0.00 | 0.00 | 0.00 | 27 | 1019.1 |
| 20260906031305 | 28 | 0 | 4.8 | 12.9 | 0.00 | 0.00 | 0.00 | 27 | 1019.0 |
| 20260906030805 | 28 | 0 | 3.2 | 12.9 | 0.00 | 0.00 | 0.00 | 27 | 1018.8 |
| 20260906030305 | 28 | 0 | 8.0 | 14.5 | 0.00 | 0.00 | 0.00 | 27 | 1018.7 |
| 20260906025805 | 28 | 0 | 6.4 | 16.1 | 0.00 | 0.00 | 0.00 | 27 | 1018.6 |
| 20260906025306 | 28 | 358 | 8.0 | 19.3 | 0.00 | 0.00 | 0.00 | 27 | 1018.6 |
| 20260906024805 | 28 | 0 | 8.0 | 16.1 | 0.00 | 0.00 | 0.00 | 27 | 1018.6 |
| 20260906024304 | 28 | 0 | 6.4 | 16.1 | 0.00 | 0.00 | 0.00 | 27 | 1018.5 |
| 20260906023805 | 28 | 358 | 4.8 | 12.9 | 0.00 | 0.00 | 0.00 | 27 | 1018.4 |
| 20260906023304 | 28 | 0 | 4.8 | 14.5 | 0.00 | 0.00 | 0.00 | 27 | 1018.3 |
| 20260906022307 | 29 | 358 | 3.2 | 8.0 | 0.00 | 0.00 | 0.00 | 29 | 1018.4 |
| 20260906021804 | 29 | 0 | 0.0 | 3.2 | 0.00 | 0.00 | 0.00 | 29 | 1018.3 |
| 20260906021304 | 29 | 0 | 0.0 | 0.0 | 0.00 | 0.00 | 0.00 | 29 | 1018.3 |
| 20260906020805 | 29 | 0 | 0.0 | 0.0 | 0.00 | 0.00 | 0.00 | 29 | 1018.3 |
| 20260906020304 | 30 | 0 | 0.0 | 0.0 | 0.00 | 0.00 | 0.00 | 29 | 1018.2 |
| 20260906015804 | 30 | 0 | 0.0 | 0.0 | 0.00 | 0.00 | 0.00 | 29 | 1018.1 |
| 20260906015306 | 30 | 0 | 0.0 | 0.0 | 0.00 | 0.00 | 0.00 | 29 | 1018.1 |
| 20260906014805 | 30 | 0 | 0.0 | 0.0 | 0.00 | 0.00 | 0.00 | 28 | 1018.1 |
| 20260906014305 | 30 | 0 | 0.0 | 0.0 | 0.00 | 0.00 | 0.00 | 28 | 1018.0 |
| 20260906013804 | 30 | 0 | 0.0 | 0.0 | 0.00 | 0.00 | 0.00 | 27 | 1018.1 |
| 20260906013305 | 31 | 0 | 0.0 | 0.0 | 0.00 | 0.00 | 0.00 | 27 | 1018.0 |
| 20260906012805 | 31 | 0 | 0.0 | 3.2 | 0.00 | 0.00 | 0.00 | 27 | 1018.1 |
| 20260906012306 | 31 | 0 | 0.0 | 0.0 | 0.00 | 0.00 | 0.00 | 26 | 1018.1 |
| 20260906011804 | 31 | 0 | 0.0 | 0.0 | 0.00 | 0.00 | 0.00 | 26 | 1018.1 |
| 20260906011305 | 31 | 0 | 0.0 | 0.0 | 0.00 | 0.00 | 0.00 | 26 | 1018.0 |
| 20260906010804 | 31 | 0 | 0.0 | 0.0 | 0.00 | 0.00 | 0.00 | 26 | 1018.0 |
| 20260906005804 | 31 | 0 | 1.6 | 8.0 | 0.00 | 0.00 | 0.00 | 25 | 1018.1 |
| 20260906005306 | 32 | 0 | 3.2 | 8.0 | 0.00 | 0.00 | 0.00 | 25 | 1018.1 |
| 20260906004804 | 32 | 0 | 1.6 | 8.0 | 0.00 | 0.00 | 0.00 | 25 | 1018.1 |
| 20260906004305 | 32 | 355 | 3.2 | 9.7 | 0.00 | 0.00 | 0.00 | 25 | 1018.1 |
| 20260906003805 | 32 | 358 | 3.2 | 11.3 | 0.00 | 0.00 | 0.00 | 25 | 1018.1 |
| 20260906003304 | 32 | 0 | 3.2 | 12.9 | 0.00 | 0.00 | 0.00 | 24 | 1018.1 |
| 20260906002804 | 32 | 308 | 0.0 | 3.2 | 0.00 | 0.00 | 0.00 | 24 | 1018.1 |
| 20260906002306 | 32 | 0 | 0.0 | 4.8 | 0.00 | 0.00 | 0.00 | 25 | 1018.1 |
| 20260906001804 | 32 | 0 | 1.6 | 8.0 | 0.00 | 0.00 | 0.00 | 24 | 1018.1 |
| 20260906001304 | 33 | 0 | 3.2 | 14.5 | 0.00 | 0.00 | 0.00 | 24 | 1018.1 |
| 20260906000805 | 33 | 0 | 3.2 | 12.9 | 0.00 | 0.00 | 0.00 | 24 | 1018.0 |
| 20260905235804 | 33 | 0 | 3.2 | 9.7 | 0.00 | 0.00 | 0.00 | 24 | 1018.0 |
| 20260905234804 | 33 | 0 | 3.2 | 16.1 | 0.00 | 0.00 | 0.00 | 24 | 1018.1 |